Time;durP1;ratioP1;P1;durP2;ratioP2;P2;SDS_P1;SDS_P2;PMS_P1;PMS_P2;Temp;Humidity;BMP_temperature;BMP_pressure;BME280_temperature;BME280_humidity;BME280_pressure;Samples;Min_cycle;Max_cycle;Signal;HPM_P1;HPM_P2
2021/11/08 00:01:10;;;;;;;15.73;9.95;;;;;;;6.27;87.83;96554.28;5108802;27;20058;-71
2021/11/08 00:03:42;;;;;;;15.82;9.45;;;;;;;6.26;88.06;96558.03;5108227;27;20117;-71
2021/11/08 00:06:08;;;;;;;16.80;10.38;;;;;;;6.23;87.84;96547.81;5108746;28;20053;-71
2021/11/08 00:08:38;;;;;;;18.85;10.75;;;;;;;6.25;87.99;96548.31;5108036;28;20054;-72
2021/11/08 00:11:05;;;;;;;16.73;10.07;;;;;;;6.28;88.09;96551.28;5108583;28;20388;-71
2021/11/08 00:13:33;;;;;;;15.70;9.82;;;;;;;6.23;87.89;96558.63;5108469;28;20055;-71
2021/11/08 00:16:09;;;;;;;18.98;10.13;;;;;;;6.29;88.19;96546.66;5106341;28;20067;-72
2021/11/08 00:18:40;;;;;;;17.33;10.38;;;;;;;6.32;87.91;96556.94;5088476;28;20048;-71
2021/11/08 00:21:08;;;;;;;18.70;10.30;;;;;;;6.35;87.68;96550.94;5087349;28;20734;-71
2021/11/08 00:23:35;;;;;;;15.88;9.90;;;;;;;6.37;87.92;96548.75;5088642;28;20056;-71
2021/11/08 00:26:03;;;;;;;17.90;10.40;;;;;;;6.38;87.46;96550.38;5085503;28;20515;-71
2021/11/08 00:28:30;;;;;;;17.38;9.98;;;;;;;6.41;87.43;96549.78;5088637;28;20059;-71
2021/11/08 00:30:57;;;;;;;16.80;10.35;;;;;;;6.41;87.49;96549.78;5087163;28;20561;-71
2021/11/08 00:33:24;;;;;;;15.88;9.50;;;;;;;6.44;87.63;96557.34;5087673;28;20054;-71
2021/11/08 00:35:54;;;;;;;18.45;10.20;;;;;;;6.45;87.19;96564.34;5087481;28;20499;-71
2021/11/08 00:38:23;;;;;;;18.23;10.43;;;;;;;6.46;87.02;96563.25;5086624;28;20064;-71
2021/11/08 00:40:49;;;;;;;16.67;9.85;;;;;;;6.48;87.14;96563.78;5087528;28;20048;-71
2021/11/08 00:43:18;;;;;;;18.50;10.85;;;;;;;6.49;87.16;96567.31;5086978;28;20388;-71
2021/11/08 00:45:44;;;;;;;16.33;10.20;;;;;;;6.50;87.17;96571.63;5088357;28;20059;-71
2021/11/08 00:48:13;;;;;;;17.05;10.10;;;;;;;6.48;86.99;96566.50;5086591;28;20054;-71
2021/11/08 00:50:42;;;;;;;15.68;10.13;;;;;;;6.48;86.68;96571.91;5088291;28;20546;-71
2021/11/08 00:53:09;;;;;;;16.05;9.98;;;;;;;6.48;86.93;96574.63;5086353;28;20556;-71
2021/11/08 00:55:39;;;;;;;15.85;9.65;;;;;;;6.51;86.96;96579.44;5091905;28;20055;-72
2021/11/08 00:58:08;;;;;;;20.27;10.70;;;;;;;6.56;87.02;96577.78;5107446;28;20069;-71
2021/11/08 01:00:34;;;;;;;17.50;10.20;;;;;;;6.59;86.39;96577.22;5107571;28;20048;-71
2021/11/08 01:03:04;;;;;;;15.35;10.27;;;;;;;6.62;86.79;96582.03;5107637;28;20051;-71
2021/11/08 01:05:31;;;;;;;22.88;9.52;;;;;;;6.67;85.89;96579.28;5106704;28;20048;-71
2021/11/08 01:07:57;;;;;;;14.48;9.10;;;;;;;6.72;85.77;96579.22;5107993;28;20054;-71
2021/11/08 01:10:24;;;;;;;17.98;10.40;;;;;;;6.69;85.79;96577.91;5106941;28;20043;-71
2021/11/08 01:12:52;;;;;;;15.88;9.38;;;;;;;6.77;85.69;96579.16;5108068;28;20059;-71
2021/11/08 01:15:19;;;;;;;15.55;9.25;;;;;;;6.78;85.00;96581.56;5106971;28;20077;-71
2021/11/08 01:17:46;;;;;;;15.98;9.50;;;;;;;6.76;84.95;96582.97;5108118;28;20081;-71
2021/11/08 01:20:14;;;;;;;16.13;9.35;;;;;;;6.72;84.98;96587.34;5107081;28;20055;-71
2021/11/08 01:22:40;;;;;;;13.82;8.70;;;;;;;6.70;84.99;96586.84;5107730;28;20079;-71
2021/11/08 01:25:09;;;;;;;15.10;9.10;;;;;;;6.66;85.12;96583.06;5105808;28;20151;-71
2021/11/08 01:27:40;;;;;;;14.43;8.38;;;;;;;6.67;85.38;96587.41;5106516;28;20692;-71
2021/11/08 01:30:13;;;;;;;13.02;7.93;;;;;;;6.65;84.25;96592.28;5107749;28;20543;-71
2021/11/08 01:32:40;;;;;;;14.60;8.90;;;;;;;6.62;84.67;96585.53;5106938;28;20139;-71
2021/11/08 01:35:08;;;;;;;16.65;9.00;;;;;;;6.67;84.74;96588.19;5107563;28;20048;-71
2021/11/08 01:37:36;;;;;;;16.13;8.90;;;;;;;6.71;84.66;96593.84;5107357;28;20044;-71
2021/11/08 01:40:05;;;;;;;14.43;8.48;;;;;;;6.75;84.41;96603.81;5107391;28;20120;-70
2021/11/08 01:42:31;;;;;;;13.38;8.90;;;;;;;6.76;84.50;96610.84;5107501;28;20065;-71
2021/11/08 01:44:59;;;;;;;14.57;7.90;;;;;;;6.77;84.13;96600.81;5107388;28;20395;-71
2021/11/08 01:47:28;;;;;;;15.57;8.63;;;;;;;6.77;84.07;96595.41;5107254;28;20046;-73
2021/11/08 01:49:54;;;;;;;14.15;8.32;;;;;;;6.77;83.76;96600.81;5107021;28;20503;-70
2021/11/08 01:52:21;;;;;;;14.32;8.25;;;;;;;6.82;84.22;96597.25;5107358;28;20052;-71
2021/11/08 01:54:47;;;;;;;14.23;7.90;;;;;;;6.85;83.50;96602.09;5107585;28;20133;-71
2021/11/08 01:57:14;;;;;;;15.75;8.10;;;;;;;6.83;83.36;96599.66;5106327;28;20047;-72
2021/11/08 01:59:41;;;;;;;13.45;8.57;;;;;;;6.84;83.61;96598.59;5107206;28;20075;-71
2021/11/08 02:02:08;;;;;;;15.32;8.23;;;;;;;6.83;83.50;96599.66;5107307;28;20051;-71
2021/11/08 02:04:36;;;;;;;12.73;7.30;;;;;;;6.84;83.10;96601.28;5107489;28;20232;-71
2021/11/08 02:07:02;;;;;;;12.43;8.10;;;;;;;6.87;83.14;96606.13;5106853;28;20055;-71
2021/11/08 02:09:29;;;;;;;13.05;8.10;;;;;;;6.90;83.18;96610.97;5107495;28;20050;-71
2021/11/08 02:11:56;;;;;;;11.48;8.13;;;;;;;6.90;83.15;96610.97;5106519;28;20138;-72
2021/11/08 02:14:23;;;;;;;17.38;8.50;;;;;;;6.91;83.83;96615.28;5107101;28;20490;-71
2021/11/08 02:16:50;;;;;;;18.13;9.07;;;;;;;6.90;83.49;96621.81;5106952;28;20059;-71
2021/11/08 02:19:16;;;;;;;12.40;8.15;;;;;;;6.94;83.99;96622.84;5107353;28;20047;-71
2021/11/08 02:21:45;;;;;;;14.85;9.57;;;;;;;6.98;83.50;96618.44;5106687;28;20043;-71
2021/11/08 02:24:16;;;;;;;17.15;8.93;;;;;;;6.98;83.49;96615.72;5107029;28;20047;-71
2021/11/08 02:26:45;;;;;;;14.65;8.70;;;;;;;6.97;83.57;96618.75;5105432;28;20054;-71
2021/11/08 02:29:13;;;;;;;15.75;9.30;;;;;;;6.98;84.22;96623.06;5106755;28;20134;-71
2021/11/08 02:31:40;;;;;;;15.70;8.95;;;;;;;7.00;84.04;96621.69;5107166;28;20124;-71
2021/11/08 02:34:06;;;;;;;15.48;9.30;;;;;;;7.00;84.19;96627.09;5106559;28;20456;-71
2021/11/08 02:36:34;;;;;;;14.10;9.10;;;;;;;7.02;84.49;96624.91;5107414;28;20047;-72
2021/11/08 02:39:03;;;;;;;16.13;9.63;;;;;;;7.04;84.13;96622.69;5108124;28;20055;-71
2021/11/08 02:41:29;;;;;;;17.10;10.02;;;;;;;7.03;84.31;96626.50;5111306;28;20051;-71
2021/11/08 02:43:57;;;;;;;16.52;9.20;;;;;;;7.07;83.53;96632.97;5110301;28;20062;-71
2021/11/08 02:46:26;;;;;;;14.10;8.75;;;;;;;7.09;82.85;96629.16;5110911;28;20047;-71
2021/11/08 02:48:57;;;;;;;13.35;8.43;;;;;;;7.04;82.61;96628.13;5110188;27;20055;-72
2021/11/08 02:51:25;;;;;;;17.17;8.30;;;;;;;7.01;82.88;96623.28;5110455;28;20117;-70
2021/11/08 02:53:59;;;;;;;13.68;8.18;;;;;;;6.94;82.48;96620.13;5110200;28;20051;-71
2021/11/08 02:56:27;;;;;;;18.08;8.70;;;;;;;6.85;83.17;96624.56;5096828;28;20048;-70
2021/11/08 02:58:53;;;;;;;15.13;8.90;;;;;;;6.82;83.54;96624.31;5090638;28;20044;-71
2021/11/08 03:01:22;;;;;;;13.57;8.10;;;;;;;6.77;83.51;96622.47;5089028;28;20060;-70
2021/11/08 03:03:52;;;;;;;15.50;8.75;;;;;;;6.74;84.05;96621.16;5090719;28;20051;-71
2021/11/08 03:06:23;;;;;;;15.00;9.40;;;;;;;6.74;83.71;96618.44;5089034;28;20091;-70
2021/11/08 03:08:50;;;;;;;15.02;9.20;;;;;;;6.73;84.02;96616.00;5090307;28;20516;-72
2021/11/08 03:11:17;;;;;;;15.82;9.50;;;;;;;6.73;84.14;96616.00;5089200;28;20098;-71
2021/11/08 03:13:53;;;;;;;15.68;9.43;;;;;;;6.71;83.84;96623.63;5089983;28;20052;-71
2021/11/08 03:16:24;;;;;;;16.35;8.55;;;;;;;6.71;84.17;96619.00;5089470;28;20072;-71
2021/11/08 03:18:55;;;;;;;14.52;8.93;;;;;;;6.69;83.87;96621.22;5089251;28;20044;-73
2021/11/08 03:21:23;;;;;;;11.90;8.20;;;;;;;6.70;84.08;96619.31;5089452;28;20452;-70
2021/11/08 03:23:53;;;;;;;16.15;8.70;;;;;;;6.65;83.93;96616.66;5089072;28;20052;-73
2021/11/08 03:26:29;;;;;;;13.48;8.55;;;;;;;6.57;83.83;96617.25;5089420;28;20062;-72
2021/11/08 03:28:58;;;;;;;14.95;8.77;;;;;;;6.52;84.34;96624.34;5089546;28;20052;-72
2021/11/08 03:31:26;;;;;;;14.35;8.63;;;;;;;6.52;84.14;96626.22;5089660;28;20121;-70
2021/11/08 03:33:53;;;;;;;15.48;9.25;;;;;;;6.52;84.03;96629.78;5089843;28;20471;-71
2021/11/08 03:36:20;;;;;;;13.52;7.97;;;;;;;6.53;84.19;96639.50;5088931;28;20451;-71
2021/11/08 03:38:46;;;;;;;13.25;8.85;;;;;;;6.56;83.86;96629.19;5089882;28;20055;-71
2021/11/08 03:41:13;;;;;;;16.70;8.95;;;;;;;6.61;83.73;96638.06;5088421;28;20078;-71
2021/11/08 03:43:40;;;;;;;14.27;8.90;;;;;;;6.63;83.84;96635.88;5089979;28;20051;-71
2021/11/08 03:46:08;;;;;;;16.58;9.10;;;;;;;6.64;84.05;96623.16;5088338;28;20054;-72
2021/11/08 03:48:35;;;;;;;14.25;8.40;;;;;;;6.72;83.50;96630.63;5089845;28;20052;-71
2021/11/08 03:51:02;;;;;;;17.05;9.55;;;;;;;6.75;83.19;96635.50;5084638;28;20101;-73
2021/11/08 03:53:28;;;;;;;14.27;8.45;;;;;;;6.74;83.10;96633.88;5089014;28;20060;-70
2021/11/08 03:55:55;;;;;;;14.07;8.45;;;;;;;6.74;83.18;96642.00;5088166;28;20051;-73
2021/11/08 03:58:22;;;;;;;14.65;8.60;;;;;;;6.77;83.31;96644.13;5088625;28;20055;-72
2021/11/08 04:00:49;;;;;;;16.38;8.73;;;;;;;6.77;82.64;96633.28;5089184;28;20055;-70
2021/11/08 04:03:17;;;;;;;14.98;8.52;;;;;;;6.72;82.54;96636.84;5087799;28;20055;-73
2021/11/08 04:05:45;;;;;;;15.40;8.10;;;;;;;6.68;82.63;96629.59;5089072;28;20510;-71
2021/11/08 04:08:15;;;;;;;15.68;8.48;;;;;;;6.65;83.14;96633.69;5087480;28;20051;-72
2021/11/08 04:10:43;;;;;;;14.10;7.82;;;;;;;6.67;82.78;96639.59;5089430;28;20051;-70
2021/11/08 04:13:13;;;;;;;14.05;7.93;;;;;;;6.65;82.44;96647.22;5087750;28;20040;-70
2021/11/08 04:15:42;;;;;;;13.32;7.75;;;;;;;6.57;82.48;96638.91;5089051;28;20048;-70
2021/11/08 04:18:12;;;;;;;13.13;7.35;;;;;;;6.50;82.80;96644.66;5088211;28;20048;-73
2021/11/08 04:20:42;;;;;;;15.52;8.40;;;;;;;6.43;82.80;96645.00;5089136;28;20049;-72
2021/11/08 04:23:10;;;;;;;14.23;8.50;;;;;;;6.37;83.42;96656.13;5088252;28;20048;-71
2021/11/08 04:25:36;;;;;;;16.42;8.60;;;;;;;6.34;83.75;96651.28;5092127;28;20051;-71
2021/11/08 04:28:03;;;;;;;14.00;8.45;;;;;;;6.34;83.77;96652.09;5108898;28;20047;-70
2021/11/08 04:30:31;;;;;;;16.70;8.15;;;;;;;6.35;83.73;96650.19;5108306;28;20055;-71
2021/11/08 04:33:15;;;;;;;15.35;8.57;;;;;;;6.36;83.75;96655.31;5109107;28;20051;-71
2021/11/08 04:35:51;;;;;;;13.85;7.97;;;;;;;6.34;83.34;96657.50;5108358;27;20071;-72
2021/11/08 04:41:12;;;;;;;;;;;;;;;6.32;83.25;96658.88;5108960;28;20059;-72
2021/11/08 04:43:55;;;;;;;12.70;7.95;;;;;;;6.33;83.02;96660.50;5107834;28;19923;-72
2021/11/08 04:52:00;;;;;;;14.32;8.40;;;;;;;6.28;83.19;96655.94;5107560;28;20047;-71
2021/11/08 04:54:34;;;;;;;16.52;8.77;;;;;;;6.27;83.17;96662.44;5108491;28;20547;-70
2021/11/08 04:57:36;;;;;;;15.07;8.38;;;;;;;6.26;83.20;96666.22;5089525;28;20513;-71
2021/11/08 05:22:27;;;;;;;19.23;9.77;;;;;;;5.93;83.32;96684.84;5043956;28;20117;-70
2021/11/08 05:27:54;;;;;;;17.80;9.32;;;;;;;5.83;83.79;96690.28;5040571;28;20048;-71
2021/11/08 05:30:21;;;;;;;16.88;8.63;;;;;;;5.82;83.75;96694.06;5067364;28;20049;-71
2021/11/08 05:32:50;;;;;;;16.20;9.02;;;;;;;5.78;83.32;96693.00;5066423;28;20498;-71
2021/11/08 05:35:17;;;;;;;22.02;10.13;;;;;;;5.71;83.28;96696.00;5067022;28;20055;-72
2021/11/08 05:37:46;;;;;;;20.08;10.13;;;;;;;5.67;82.90;96696.84;5066457;28;20518;-72
2021/11/08 05:40:19;;;;;;;17.15;9.65;;;;;;;5.63;82.88;96698.47;5066653;28;20083;-70
2021/11/08 05:42:46;;;;;;;19.67;9.68;;;;;;;5.58;82.65;96695.81;5066848;28;20043;-72
2021/11/08 05:45:15;;;;;;;15.85;9.82;;;;;;;5.51;82.40;96709.63;5065738;28;20156;-72
2021/11/08 05:47:42;;;;;;;20.73;9.73;;;;;;;5.46;82.24;96707.75;5067861;28;20053;-71
2021/11/08 05:50:10;;;;;;;18.20;10.02;;;;;;;5.38;82.58;96719.13;5065598;28;20625;-71
2021/11/08 05:52:37;;;;;;;18.77;9.85;;;;;;;5.31;82.82;96710.50;5067479;28;20048;-72
2021/11/08 05:55:05;;;;;;;15.75;9.75;;;;;;;5.28;83.26;96710.25;5065173;28;20040;-70
2021/11/08 05:57:51;;;;;;;21.42;10.45;;;;;;;5.23;83.05;96713.78;5108004;28;20143;-71
2021/11/08 06:49:33;;;;;;;25.60;11.45;;;;;;;4.98;83.87;96771.31;5070001;28;20238;-73
2021/11/08 06:52:00;;;;;;;20.80;11.63;;;;;;;5.07;84.09;96777.78;5069432;28;20101;-73
2021/11/08 06:54:29;;;;;;;20.63;10.80;;;;;;;5.12;83.90;96787.78;5070076;28;20049;-73
2021/11/08 06:56:59;;;;;;;25.80;11.68;;;;;;;5.23;84.42;96787.47;5085975;28;20074;-72
2021/11/08 06:59:26;;;;;;;20.52;10.57;;;;;;;5.35;84.99;96781.78;5090294;28;20048;-73
2021/11/08 07:01:55;;;;;;;20.33;10.95;;;;;;;5.36;85.02;96783.38;5089223;28;20094;-74
2021/11/08 07:04:23;;;;;;;21.38;10.75;;;;;;;5.39;85.36;96788.25;5089921;28;20040;-73
2021/11/08 07:06:49;;;;;;;25.50;11.25;;;;;;;5.42;85.75;96786.88;5089534;28;20055;-73
2021/11/08 07:09:16;;;;;;;20.65;11.02;;;;;;;5.44;85.62;96793.66;5089100;28;20052;-73
2021/11/08 07:11:44;;;;;;;10.70;5.50;;;;;;;5.46;85.86;96788.78;5089944;28;20052;-73
2021/11/08 07:14:11;;;;;;;18.33;10.15;;;;;;;5.49;86.03;96799.03;5088903;28;20044;-73
2021/11/08 07:16:39;;;;;;;19.38;10.32;;;;;;;5.58;86.20;96791.16;5090200;28;20044;-73
2021/11/08 07:19:07;;;;;;;21.38;10.18;;;;;;;5.69;86.17;96791.94;5088856;28;20047;-73
2021/11/08 07:21:34;;;;;;;16.05;9.43;;;;;;;5.78;85.45;96794.88;5090457;28;20076;-73
2021/11/08 07:24:00;;;;;;;19.58;9.45;;;;;;;5.85;85.00;96803.53;5088792;28;20056;-73
2021/11/08 07:26:27;;;;;;;19.73;10.00;;;;;;;5.94;84.93;96805.38;5099521;28;20058;-73
2021/11/08 07:28:54;;;;;;;17.83;9.65;;;;;;;6.04;84.67;96799.13;5109605;28;20048;-73
2021/11/08 07:31:20;;;;;;;18.73;9.75;;;;;;;6.14;84.73;96803.66;5109155;28;20040;-73
2021/11/08 07:33:47;;;;;;;18.25;8.93;;;;;;;6.20;84.15;96802.56;5109640;28;20067;-73
2021/11/08 07:36:15;;;;;;;19.48;9.18;;;;;;;6.33;83.88;96807.38;5109421;28;20512;-73
2021/11/08 07:38:42;;;;;;;17.95;8.10;;;;;;;6.42;82.09;96808.41;5110050;28;20051;-73
2021/11/08 07:41:10;;;;;;;14.43;7.65;;;;;;;6.45;81.82;96799.69;5108819;28;20043;-73
2021/11/08 07:43:37;;;;;;;16.92;8.40;;;;;;;6.53;81.70;96806.44;5110047;27;20052;-73
2021/11/08 07:46:03;;;;;;;16.27;8.35;;;;;;;6.63;82.03;96805.53;5108310;28;20513;-73
2021/11/08 07:48:30;;;;;;;15.82;8.00;;;;;;;6.68;82.08;96808.19;5109753;28;20529;-73
2021/11/08 07:50:57;;;;;;;20.75;7.40;;;;;;;6.71;81.38;96807.66;5109144;27;20418;-73
2021/11/08 07:53:25;;;;;;;15.63;7.93;;;;;;;6.81;81.59;96807.56;5108735;28;20687;-74
2021/11/08 07:55:51;;;;;;;18.35;7.20;;;;;;;6.95;80.19;96803.13;5101196;28;20059;-73
2021/11/08 07:58:18;;;;;;;17.13;6.90;;;;;;;7.04;79.07;96806.81;5088623;28;20047;-74
2021/11/08 08:00:45;;;;;;;13.57;6.88;;;;;;;7.20;78.70;96803.97;5089423;28;20071;-73
2021/11/08 08:03:12;;;;;;;14.25;6.25;;;;;;;7.37;75.73;96809.00;5087974;28;20130;-73
2021/11/08 08:05:38;;;;;;;13.18;6.68;;;;;;;7.50;76.44;96803.69;5089371;28;20055;-73
2021/11/08 08:08:05;;;;;;;13.32;5.88;;;;;;;7.67;75.15;96805.13;5087814;28;20058;-73
2021/11/08 08:10:34;;;;;;;17.10;7.47;;;;;;;7.84;75.51;96800.09;5089539;28;20048;-73
2021/11/08 08:13:01;;;;;;;14.35;6.43;;;;;;;8.01;74.87;96802.31;5088223;28;20055;-73
2021/11/08 08:15:28;;;;;;;18.65;5.72;;;;;;;8.01;73.39;96807.75;5088793;28;20442;-73
2021/11/08 08:17:56;;;;;;;15.73;6.00;;;;;;;8.06;74.06;96804.97;5088532;28;20515;-74
2021/11/08 08:20:24;;;;;;;16.98;6.45;;;;;;;8.22;74.33;96808.28;5088311;28;20103;-74
2021/11/08 08:22:51;;;;;;;16.52;5.90;;;;;;;8.26;73.46;96803.91;5088664;28;20056;-74
2021/11/08 08:25:18;;;;;;;16.08;6.65;;;;;;;8.24;73.12;96806.06;5089290;28;20776;-73
2021/11/08 08:27:46;;;;;;;15.73;6.10;;;;;;;8.23;73.24;96804.47;5109513;28;20499;-74
2021/11/08 08:30:13;;;;;;;14.65;5.55;;;;;;;8.27;72.35;96805.50;5107586;27;20509;-73
2021/11/08 08:32:39;;;;;;;19.38;7.38;;;;;;;8.35;73.85;96807.56;5109094;28;20582;-74
2021/11/08 08:35:08;;;;;;;14.10;5.30;;;;;;;8.55;72.65;96804.59;5108280;28;20047;-73
2021/11/08 08:37:35;;;;;;;14.63;5.03;;;;;;;8.66;71.60;96807.16;5108982;28;20059;-73
2021/11/08 08:40:02;;;;;;;18.10;4.95;;;;;;;8.65;70.81;96810.97;5107840;28;20528;-72
2021/11/08 08:42:29;;;;;;;19.52;5.55;;;;;;;8.52;70.61;96812.53;5108402;28;20050;-73
2021/11/08 08:44:57;;;;;;;14.80;4.80;;;;;;;8.31;70.17;96820.09;5108507;28;20056;-73
2021/11/08 08:47:24;;;;;;;18.67;4.63;;;;;;;8.23;70.60;96815.31;5107791;28;20052;-73
2021/11/08 08:49:50;;;;;;;13.20;5.10;;;;;;;8.15;71.42;96824.13;5108828;28;20130;-73
2021/11/08 08:52:18;;;;;;;17.95;5.60;;;;;;;8.11;71.83;96819.25;5108065;28;20059;-76
2021/11/08 08:54:45;;;;;;;15.93;6.03;;;;;;;8.07;71.96;96818.22;5109256;28;20059;-73
2021/11/08 08:57:12;;;;;;;13.90;5.38;;;;;;;8.09;72.66;96824.19;5105964;27;20048;-73
2021/11/08 08:59:40;;;;;;;15.82;5.80;;;;;;;8.09;72.24;96826.91;5108719;28;20425;-73
2021/11/08 09:02:08;;;;;;;13.75;5.32;;;;;;;8.13;72.17;96829.00;5107460;28;20056;-73
2021/11/08 09:04:36;;;;;;;16.85;5.70;;;;;;;8.27;72.46;96832.63;5108756;28;20055;-73
2021/11/08 09:07:03;;;;;;;18.95;6.20;;;;;;;8.53;72.08;96825.78;5107612;28;20052;-74
2021/11/08 09:09:29;;;;;;;13.48;5.25;;;;;;;8.82;70.70;96827.53;5108282;28;20051;-74
2021/11/08 09:11:56;;;;;;;20.52;5.68;;;;;;;9.06;70.14;96833.69;5108367;28;20051;-73
2021/11/08 09:14:23;;;;;;;13.45;5.20;;;;;;;9.23;69.10;96826.88;5107442;28;20065;-73
2021/11/08 09:16:49;;;;;;;12.35;5.50;;;;;;;9.32;68.93;96833.25;5108809;28;20048;-74
2021/11/08 09:19:17;;;;;;;16.85;6.55;;;;;;;9.37;69.59;96844.03;5107133;28;20043;-73
2021/11/08 09:21:44;;;;;;;15.07;5.18;;;;;;;9.33;67.98;96834.88;5108512;27;20081;-73
2021/11/08 09:24:10;;;;;;;13.40;4.93;;;;;;;9.21;67.21;96835.34;5107145;28;20050;-75
2021/11/08 09:26:37;;;;;;;18.00;5.35;;;;;;;9.09;67.15;96833.09;5093669;28;20051;-73
2021/11/08 09:29:04;;;;;;;18.63;4.93;;;;;;;9.10;68.39;96834.72;5087238;28;20048;-72
2021/11/08 09:31:31;;;;;;;12.27;4.72;;;;;;;9.27;66.63;96834.16;5087373;28;20055;-73
2021/11/08 09:34:03;;;;;;;15.05;4.78;;;;;;;9.48;64.71;96839.25;5087863;28;20044;-73
2021/11/08 09:36:31;;;;;;;14.18;4.85;;;;;;;9.73;66.46;96846.13;5087094;28;20043;-73
2021/11/08 09:38:59;;;;;;;12.43;4.72;;;;;;;10.00;65.26;96840.72;5087849;28;20519;-73
2021/11/08 09:41:29;;;;;;;14.65;4.57;;;;;;;10.19;63.91;96837.91;5086397;28;20055;-73
2021/11/08 09:43:57;;;;;;;14.00;4.65;;;;;;;10.08;62.22;96837.31;5087798;28;20640;-73
2021/11/08 09:46:24;;;;;;;19.50;5.20;;;;;;;10.01;63.15;96847.75;5086888;28;20048;-73
2021/11/08 09:48:52;;;;;;;12.52;4.82;;;;;;;10.00;63.21;96848.88;5089433;28;20052;-74
2021/11/08 09:51:19;;;;;;;16.42;5.20;;;;;;;10.13;63.00;96845.38;5091972;28;20044;-73
2021/11/08 09:53:47;;;;;;;20.63;5.47;;;;;;;10.38;62.81;96841.31;5091787;28;20046;-74
2021/11/08 09:56:15;;;;;;;15.07;5.05;;;;;;;10.47;61.83;96838.69;5100784;28;20047;-74
2021/11/08 09:58:42;;;;;;;17.25;5.10;;;;;;;10.43;60.70;96848.56;5111503;28;20075;-73
2021/11/08 10:01:11;;;;;;;14.80;5.05;;;;;;;10.35;61.36;96841.94;5111504;28;20050;-73
2021/11/08 10:03:38;;;;;;;15.23;4.85;;;;;;;10.14;61.17;96846.97;5111166;28;20059;-74
2021/11/08 10:06:06;;;;;;;16.15;4.68;;;;;;;10.03;61.41;96850.19;5111445;28;20055;-73
2021/11/08 10:08:35;;;;;;;16.67;4.63;;;;;;;9.91;62.05;96854.19;5112601;28;20054;-74
2021/11/08 10:11:06;;;;;;;16.90;4.57;;;;;;;9.81;62.34;96846.22;5112760;27;20051;-73
2021/11/08 10:13:34;;;;;;;12.68;4.50;;;;;;;9.72;62.22;96855.41;5112498;27;20414;-73
2021/11/08 10:16:04;;;;;;;17.50;4.93;;;;;;;9.61;63.26;96855.59;5112774;28;20054;-74
2021/11/08 10:18:31;;;;;;;15.90;5.07;;;;;;;9.51;63.36;96855.78;5112744;28;20070;-74
2021/11/08 10:21:06;;;;;;;16.73;4.85;;;;;;;9.38;64.03;96859.25;5112750;28;20521;-74
2021/11/08 10:23:33;;;;;;;11.95;4.53;;;;;;;9.34;63.69;96852.78;5113038;28;20047;-74
2021/11/08 10:26:00;;;;;;;16.40;5.15;;;;;;;9.36;63.22;96858.75;5103082;28;20048;-74
2021/11/08 10:28:29;;;;;;;12.15;4.63;;;;;;;9.26;62.50;96842.63;5093052;28;20056;-74
2021/11/08 10:30:58;;;;;;;14.15;4.95;;;;;;;9.33;61.96;96848.47;5091033;28;20051;-74
2021/11/08 10:33:30;;;;;;;10.40;4.75;;;;;;;9.71;61.66;96842.91;5090821;28;20054;-73
2021/11/08 10:36:00;;;;;;;16.10;5.00;;;;;;;10.07;61.18;96840.31;5090890;28;20062;-74
2021/11/08 10:38:29;;;;;;;10.45;4.47;;;;;;;10.44;58.94;96840.13;5090254;28;20105;-73
2021/11/08 10:40:58;;;;;;;13.45;4.43;;;;;;;10.66;58.46;96842.09;5090275;28;20507;-73
2021/11/08 10:43:30;;;;;;;14.40;4.00;;;;;;;10.91;58.31;96845.34;5089165;28;20043;-73
2021/11/08 10:45:59;;;;;;;14.38;2.95;;;;;;;11.11;55.66;96839.41;5090660;28;20052;-74
2021/11/08 10:48:28;;;;;;;14.20;2.72;;;;;;;11.19;52.93;96849.56;5089002;28;20587;-74
2021/11/08 10:50:56;;;;;;;9.23;2.20;;;;;;;11.22;50.74;96838.06;5090265;28;20131;-73
2021/11/08 10:53:23;;;;;;;11.32;2.80;;;;;;;11.26;51.84;96840.16;5088595;28;20048;-73
2021/11/08 10:55:53;;;;;;;10.35;2.90;;;;;;;11.28;51.47;96835.22;5096408;28;20050;-73
2021/11/08 10:58:21;;;;;;;15.43;3.13;;;;;;;11.33;52.01;96829.59;5110003;28;20417;-73
2021/11/08 11:00:52;;;;;;;14.52;2.78;;;;;;;11.22;52.66;96835.34;5110240;28;20052;-75
2021/11/08 11:03:20;;;;;;;9.77;2.85;;;;;;;11.18;50.85;96839.78;5110406;28;20503;-73
2021/11/08 11:05:46;;;;;;;11.70;3.00;;;;;;;11.23;51.93;96836.94;5109976;27;20459;-73
2021/11/08 11:08:15;;;;;;;11.77;3.08;;;;;;;11.42;52.69;96835.94;5110438;28;20056;-73
2021/11/08 11:10:53;;;;;;;10.25;2.50;;;;;;;11.57;51.15;96827.34;5111009;28;20062;-74
2021/11/08 11:13:21;;;;;;;10.60;2.45;;;;;;;11.57;49.95;96832.81;5111822;28;20055;-74
2021/11/08 11:15:50;;;;;;;9.82;2.30;;;;;;;11.64;49.58;96829.63;5111534;28;20123;-74
2021/11/08 11:18:17;;;;;;;12.18;2.75;;;;;;;11.72;49.46;96824.22;5111787;28;20051;-74
2021/11/08 11:20:47;;;;;;;10.38;2.90;;;;;;;11.71;49.55;96825.34;5111797;28;20090;-74
2021/11/08 11:23:25;;;;;;;9.57;2.85;;;;;;;11.79;49.16;96822.97;5110567;28;20100;-74
2021/11/08 11:25:53;;;;;;;8.73;2.47;;;;;;;12.01;50.03;96821.03;5103631;28;20055;-74
2021/11/08 11:28:30;;;;;;;9.90;2.25;;;;;;;12.02;49.03;96814.44;5090759;28;20518;-75
2021/11/08 11:30:58;;;;;;;7.78;2.70;;;;;;;12.01;48.25;96814.75;5092490;28;20048;-74
2021/11/08 11:33:27;;;;;;;8.35;2.00;;;;;;;11.95;46.03;96811.38;5090323;28;20044;-74
2021/11/08 11:36:02;;;;;;;9.18;2.38;;;;;;;12.01;48.79;96814.75;5089862;28;20574;-74
2021/11/08 11:38:32;;;;;;;12.27;3.70;;;;;;;12.30;49.78;96810.66;5088461;28;20518;-73
2021/11/08 11:41:01;;;;;;;13.10;3.05;;;;;;;12.53;47.42;96812.97;5088763;28;20418;-73
2021/11/08 11:43:30;;;;;;;10.50;3.20;;;;;;;12.51;45.25;96814.41;5088603;28;20052;-73
2021/11/08 11:45:58;;;;;;;11.43;3.50;;;;;;;12.64;45.34;96809.94;5088534;28;20040;-73
2021/11/08 11:48:26;;;;;;;10.63;2.92;;;;;;;12.84;46.54;96806.53;5088704;28;20048;-74
2021/11/08 11:50:53;;;;;;;11.70;2.47;;;;;;;12.70;44.05;96812.19;5087986;28;20055;-73
2021/11/08 11:53:21;;;;;;;11.77;3.25;;;;;;;12.42;44.68;96813.56;5088455;28;20426;-73
2021/11/08 11:55:48;;;;;;;10.45;2.22;;;;;;;12.23;44.39;96809.22;5093978;28;20640;-74
2021/11/08 11:58:16;;;;;;;11.57;3.15;;;;;;;11.91;42.85;96806.84;5108858;28;20051;-74
2021/11/08 12:00:45;;;;;;;13.32;3.92;;;;;;;11.71;46.38;96816.38;5109507;28;20047;-74
2021/11/08 12:03:13;;;;;;;13.02;3.80;;;;;;;11.44;48.94;96811.91;5108690;28;20058;-74
2021/11/08 12:05:44;;;;;;;13.88;3.70;;;;;;;11.31;49.84;96807.31;5109264;28;20051;-74
2021/11/08 12:08:13;;;;;;;10.35;3.60;;;;;;;11.17;51.01;96808.22;5108188;28;20073;-74
2021/11/08 12:10:48;;;;;;;9.75;3.25;;;;;;;11.04;52.14;96806.34;5110142;28;20052;-73
2021/11/08 12:13:17;;;;;;;18.98;4.60;;;;;;;10.92;52.49;96795.19;5107519;28;20063;-73
2021/11/08 12:15:43;;;;;;;16.50;4.90;;;;;;;10.74;54.02;96794.25;5109722;28;20051;-74
2021/11/08 12:18:15;;;;;;;19.88;6.05;;;;;;;10.57;53.62;96797.63;5108462;28;20043;-75
2021/11/08 12:20:44;;;;;;;18.80;4.45;;;;;;;10.45;53.71;96797.38;5109093;28;20066;-73
2021/11/08 12:23:14;;;;;;;12.60;4.13;;;;;;;10.35;55.04;96792.13;5108605;28;20048;-74
2021/11/08 12:25:42;;;;;;;16.27;4.03;;;;;;;10.24;54.96;96786.13;5106943;28;20044;-73
2021/11/08 12:28:12;;;;;;;12.85;3.42;;;;;;;10.14;55.81;96784.38;5108894;27;20101;-73
2021/11/08 12:30:41;;;;;;;9.35;3.05;;;;;;;10.09;57.01;96784.47;5108571;28;20086;-74
2021/11/08 12:33:10;;;;;;;13.73;3.88;;;;;;;10.00;56.13;96778.13;5108587;27;20496;-73
2021/11/08 12:35:41;;;;;;;16.92;4.10;;;;;;;9.89;56.32;96776.75;5108461;28;20101;-73
2021/11/08 12:38:17;;;;;;;10.60;3.95;;;;;;;9.85;56.17;96773.00;5108562;28;20043;-74
2021/11/08 12:40:44;;;;;;;8.35;3.10;;;;;;;9.82;55.46;96763.56;5108850;28;20124;-73
2021/11/08 12:43:10;;;;;;;17.42;4.57;;;;;;;9.90;56.03;96764.75;5108147;28;20047;-73
2021/11/08 12:45:39;;;;;;;12.35;3.58;;;;;;;9.95;55.52;96767.34;5108936;27;20048;-75
2021/11/08 12:48:09;;;;;;;15.27;3.55;;;;;;;10.03;53.87;96763.13;5108179;28;20043;-74
2021/11/08 12:50:40;;;;;;;11.45;3.20;;;;;;;10.05;52.45;96769.06;5109136;28;20070;-73
2021/11/08 12:53:07;;;;;;;6.80;2.63;;;;;;;10.07;51.65;96767.63;5107613;28;20051;-75
2021/11/08 12:55:41;;;;;;;14.43;3.00;;;;;;;10.14;50.68;96768.06;5103027;28;20063;-73
2021/11/08 12:58:11;;;;;;;12.80;3.53;;;;;;;10.17;51.70;96764.69;5087523;28;20044;-75
2021/11/08 13:00:41;;;;;;;9.45;2.42;;;;;;;10.15;49.95;96756.06;5088380;28;20515;-76